Time;durP1;ratioP1;P1;durP2;ratioP2;P2;SDS_P1;SDS_P2;PMS_P1;PMS_P2;Temp;Humidity;BMP_temperature;BMP_pressure;BME280_temperature;BME280_humidity;BME280_pressure;Samples;Min_cycle;Max_cycle;Signal;HPM_P1;HPM_P2
2022/08/26 00:01:08;;;;;;;8.45;4.65;;;;;;;22.20;45.72;100066.89;1694811;84;21419;-69
2022/08/26 00:03:40;;;;;;;14.03;4.73;;;;;;;22.16;45.59;100066.14;1695784;84;20976;-70
2022/08/26 00:06:10;;;;;;;9.13;4.65;;;;;;;22.16;45.59;100066.14;1694041;82;21845;-70
2022/08/26 00:08:42;;;;;;;9.78;4.30;;;;;;;22.17;45.62;100059.72;1694984;84;21080;-71
2022/08/26 00:11:12;;;;;;;11.77;4.70;;;;;;;22.17;45.53;100063.24;1695962;84;21062;-71
2022/08/26 00:13:44;;;;;;;8.93;4.37;;;;;;;22.18;45.58;100064.89;1695167;83;21088;-70
2022/08/26 00:16:14;;;;;;;13.62;4.10;;;;;;;22.15;45.76;100068.00;1694943;83;20975;-70
2022/08/26 00:18:43;;;;;;;7.80;4.72;;;;;;;22.12;45.65;100064.39;1693796;84;21973;-71
2022/08/26 00:21:10;;;;;;;9.45;4.47;;;;;;;22.09;45.74;100056.70;1694046;82;21336;-71
2022/08/26 00:23:37;;;;;;;6.83;4.35;;;;;;;22.08;45.65;100062.30;1695358;84;20984;-71
2022/08/26 00:26:04;;;;;;;7.35;4.10;;;;;;;22.08;45.57;100060.43;1689653;84;21021;-70
2022/08/26 00:28:32;;;;;;;10.30;4.40;;;;;;;22.05;45.72;100056.78;1695330;83;21069;-69
2022/08/26 00:30:59;;;;;;;8.78;4.45;;;;;;;21.99;45.97;100057.06;1695730;82;21772;-71
2022/08/26 00:33:26;;;;;;;9.00;4.70;;;;;;;21.95;46.21;100061.21;1695244;84;20969;-70
2022/08/26 00:35:53;;;;;;;10.50;4.35;;;;;;;21.91;46.46;100065.87;1697159;83;21434;-69
2022/08/26 00:38:21;;;;;;;9.25;4.78;;;;;;;21.90;46.55;100069.56;1695120;84;21505;-70
2022/08/26 00:40:54;;;;;;;9.63;4.25;;;;;;;21.88;46.68;100072.97;1695617;82;20970;-70
2022/08/26 00:43:21;;;;;;;;;;;;;;;21.86;46.82;100061.08;1700047;82;21979;-70
2022/08/26 00:46:11;;;;;;;6.05;4.03;;;;;;;21.83;46.96;100064.70;1695502;83;20847;-69
2022/08/26 00:48:39;;;;;;;10.30;4.28;;;;;;;21.75;46.96;100060.33;1677277;84;21001;-70
2022/08/26 00:51:13;;;;;;;7.10;4.35;;;;;;;21.73;47.05;100057.54;1689904;82;21029;-70
2022/08/26 00:53:44;;;;;;;7.85;4.30;;;;;;;21.70;47.13;100057.41;1674454;84;21561;-69
2022/08/26 00:56:20;;;;;;;9.13;4.08;;;;;;;21.68;47.06;100053.58;1702642;84;21898;-70
2022/08/26 00:58:48;;;;;;;8.60;4.12;;;;;;;21.66;46.92;100054.30;1702993;84;20941;-69
2022/08/26 01:01:15;;;;;;;13.15;4.37;;;;;;;21.65;46.91;100055.33;1701964;82;21019;-71
2022/08/26 01:03:42;;;;;;;13.40;4.53;;;;;;;21.64;46.74;100052.34;1671299;84;21047;-69
2022/08/26 01:06:11;;;;;;;7.45;4.22;;;;;;;21.65;46.67;100049.13;1702117;84;21079;-70
2022/08/26 01:08:37;;;;;;;9.18;4.30;;;;;;;21.67;46.61;100049.23;1702606;84;22321;-71
2022/08/26 01:11:04;;;;;;;7.08;4.35;;;;;;;21.66;46.70;100049.44;1698367;82;21007;-70
2022/08/26 01:13:31;;;;;;;9.25;4.15;;;;;;;21.65;46.68;100050.47;1693749;83;21058;-71
2022/08/26 01:16:00;;;;;;;8.28;4.20;;;;;;;21.64;46.98;100054.20;1693320;84;21024;-70
2022/08/26 01:18:27;;;;;;;8.40;4.00;;;;;;;21.58;47.21;100050.44;1713512;83;21094;-71
2022/08/26 01:21:22;;;;;;;10.53;4.30;;;;;;;21.53;47.24;100048.89;1691602;83;21800;-70
2022/08/26 01:23:50;;;;;;;10.00;4.00;;;;;;;21.49;47.41;100047.61;1710841;83;21454;-70
2022/08/26 01:26:36;;;;;;;8.80;4.45;;;;;;;21.44;47.30;100044.72;1711085;83;21052;-70
2022/08/26 01:29:04;;;;;;;7.28;3.95;;;;;;;21.41;47.43;100047.78;1713395;82;21032;-71
2022/08/26 01:31:40;;;;;;;10.82;4.30;;;;;;;21.38;47.47;100049.02;1711165;82;21062;-69
2022/08/26 01:34:25;;;;;;;8.53;4.10;;;;;;;21.36;47.71;100052.42;1743694;82;21891;-70
2022/08/26 01:37:09;;;;;;;12.82;4.75;;;;;;;21.35;47.92;100052.63;1719095;82;21481;-71
2022/08/26 01:39:35;;;;;;;14.38;3.95;;;;;;;21.33;47.92;100050.15;1709779;82;21497;-70
2022/08/26 01:42:03;;;;;;;13.78;4.17;;;;;;;21.31;47.82;100048.15;1723883;82;21008;-70
2022/08/26 01:44:38;;;;;;;8.28;4.50;;;;;;;21.29;47.80;100044.84;1709842;82;21094;-70
2022/08/26 01:47:04;;;;;;;;;;;;;;;21.29;48.02;100046.70;1704379;84;21822;-69
2022/08/26 01:49:31;;;;;;;9.78;4.33;;;;;;;21.27;47.97;100044.22;1701099;82;20198;-69
2022/08/26 01:51:57;;;;;;;13.03;4.28;;;;;;;21.26;48.11;100047.08;1714524;82;20995;-69
2022/08/26 01:54:24;;;;;;;13.15;4.70;;;;;;;21.24;48.07;100047.80;1686774;83;21000;-69
2022/08/26 01:56:51;;;;;;;12.53;4.50;;;;;;;21.24;47.96;100046.45;1711435;82;21154;-70
2022/08/26 01:59:19;;;;;;;17.12;4.42;;;;;;;21.22;48.14;100041.25;1708489;82;21834;-69
2022/08/26 02:01:47;;;;;;;6.62;4.15;;;;;;;21.21;48.23;100045.48;1701050;83;20948;-69
2022/08/26 02:04:24;;;;;;;7.35;4.00;;;;;;;21.19;48.37;100047.03;1716018;82;21001;-70
2022/08/26 02:06:51;;;;;;;13.72;4.70;;;;;;;21.18;48.35;100040.00;1710368;82;21020;-70
2022/08/26 02:09:20;;;;;;;9.80;4.65;;;;;;;21.18;48.21;100041.86;1709668;83;20993;-70
2022/08/26 02:11:48;;;;;;;11.45;4.37;;;;;;;21.17;48.07;100037.52;1698414;82;22543;-69
2022/08/26 02:14:19;;;;;;;9.20;4.33;;;;;;;21.15;47.85;100037.21;1686883;84;21487;-70
2022/08/26 02:16:49;;;;;;;7.87;4.85;;;;;;;21.15;47.85;100038.55;1708942;83;20984;-70
2022/08/26 02:19:19;;;;;;;12.15;4.55;;;;;;;21.15;47.94;100039.89;1745215;82;21020;-70
2022/08/26 02:21:47;;;;;;;9.18;3.98;;;;;;;21.13;47.98;100035.73;1706532;82;21379;-70
2022/08/26 02:24:18;;;;;;;10.13;4.62;;;;;;;21.13;47.82;100038.41;1732545;82;22529;-69
2022/08/26 02:26:45;;;;;;;10.00;3.95;;;;;;;21.11;47.96;100035.94;1709787;83;21568;-69
2022/08/26 02:29:25;;;;;;;10.53;4.42;;;;;;;21.11;47.89;100041.30;1723298;81;21035;-69
2022/08/26 02:31:54;;;;;;;12.68;4.37;;;;;;;21.10;47.93;100038.82;1711586;82;20989;-69
2022/08/26 02:34:27;;;;;;;12.23;4.50;;;;;;;21.07;48.03;100046.77;1710751;83;21004;-69
2022/08/26 02:36:56;;;;;;;9.00;4.78;;;;;;;21.06;48.02;100044.28;1703278;82;21920;-69
2022/08/26 02:39:22;;;;;;;6.58;4.28;;;;;;;21.03;48.30;100041.46;1722562;82;21519;-69
2022/08/26 02:41:49;;;;;;;8.15;4.37;;;;;;;21.00;48.34;100038.35;1702155;84;20973;-69
2022/08/26 02:44:16;;;;;;;8.63;4.45;;;;;;;20.98;48.48;100038.55;1712457;83;21033;-69
2022/08/26 02:46:43;;;;;;;12.65;4.30;;;;;;;20.96;48.71;100039.78;1713544;82;21013;-70
2022/08/26 02:49:10;;;;;;;15.78;4.80;;;;;;;20.92;48.59;100035.82;1715770;82;21928;-69
2022/08/26 02:51:37;;;;;;;10.32;4.42;;;;;;;20.91;48.62;100040.36;1723431;82;21048;-70
2022/08/26 02:54:03;;;;;;;9.85;4.20;;;;;;;20.89;48.68;100040.25;1698885;83;21037;-70
2022/08/26 02:56:33;;;;;;;10.53;3.98;;;;;;;20.89;48.66;100042.94;1709812;83;21110;-70
2022/08/26 02:58:59;;;;;;;9.08;4.90;;;;;;;20.89;48.78;100045.62;1687928;83;21011;-70
2022/08/26 03:01:29;;;;;;;8.95;4.40;;;;;;;20.86;48.96;100039.63;1690365;85;21962;-69
2022/08/26 03:03:56;;;;;;;10.58;4.30;;;;;;;20.84;49.06;100048.39;1690274;85;21022;-69
2022/08/26 03:06:23;;;;;;;11.53;4.42;;;;;;;20.84;49.29;100047.53;1689311;84;21014;-70
2022/08/26 03:08:50;;;;;;;10.40;4.22;;;;;;;20.82;49.43;100049.08;1670825;84;21107;-69
2022/08/26 03:11:17;;;;;;;11.20;4.35;;;;;;;20.80;49.43;100052.47;1704813;83;21072;-71
2022/08/26 03:13:44;;;;;;;9.65;4.65;;;;;;;20.77;49.65;100047.51;1727221;83;21887;-69
2022/08/26 03:16:10;;;;;;;11.03;4.65;;;;;;;20.74;49.93;100046.53;1709957;83;20957;-69
2022/08/26 03:18:37;;;;;;;10.23;4.55;;;;;;;20.72;50.14;100048.59;1680075;83;21095;-69
2022/08/26 03:21:09;;;;;;;13.78;4.00;;;;;;;20.70;50.22;100044.45;1712859;83;21004;-69
2022/08/26 03:23:37;;;;;;;9.80;4.00;;;;;;;20.68;50.14;100054.05;1685340;85;20984;-70
2022/08/26 03:26:05;;;;;;;15.83;4.60;;;;;;;20.67;50.08;100042.17;1710344;83;21912;-69
2022/08/26 03:28:31;;;;;;;10.43;4.50;;;;;;;20.67;50.24;100044.86;1678021;83;21090;-69
2022/08/26 03:30:58;;;;;;;9.85;4.53;;;;;;;20.66;50.49;100044.03;1699156;83;20981;-70
2022/08/26 03:33:24;;;;;;;11.80;4.50;;;;;;;20.65;50.55;100045.02;1685736;83;21029;-68
2022/08/26 03:35:51;;;;;;;9.03;4.12;;;;;;;20.65;50.76;100045.53;1688135;83;21060;-70
2022/08/26 03:38:21;;;;;;;10.55;4.12;;;;;;;20.64;50.92;100048.73;1701353;83;21925;-69
2022/08/26 03:40:47;;;;;;;9.60;4.20;;;;;;;20.64;51.06;100047.91;1690555;85;20976;-69
2022/08/26 03:43:15;;;;;;;14.95;4.47;;;;;;;20.62;50.93;100046.77;1690670;85;21012;-70
2022/08/26 03:45:41;;;;;;;8.65;4.60;;;;;;;20.64;50.69;100047.91;1691278;83;21086;-70
2022/08/26 03:48:08;;;;;;;8.65;4.35;;;;;;;20.64;50.62;100046.05;1690638;85;20972;-69
2022/08/26 03:50:34;;;;;;;12.80;4.50;;;;;;;20.64;50.52;100050.59;1690278;83;22257;-69
2022/08/26 03:53:01;;;;;;;10.55;4.47;;;;;;;20.65;50.55;100045.02;1685008;85;21041;-69
2022/08/26 03:55:34;;;;;;;15.60;4.55;;;;;;;20.65;50.68;100046.37;1720696;81;20952;-68
2022/08/26 03:57:59;;;;;;;11.88;4.20;;;;;;;20.66;50.51;100042.69;1726373;83;20996;-69
2022/08/26 04:00:26;;;;;;;13.83;4.25;;;;;;;20.66;50.46;100049.91;1725240;83;20960;-70
2022/08/26 04:02:52;;;;;;;11.15;4.67;;;;;;;20.69;50.36;100047.66;1690990;84;22882;-69
2022/08/26 04:05:19;;;;;;;8.38;4.50;;;;;;;20.71;50.25;100046.94;1690284;83;21423;-70
2022/08/26 04:07:47;;;;;;;11.18;4.45;;;;;;;20.72;50.14;100045.91;1727013;83;20973;-69
2022/08/26 04:10:16;;;;;;;9.83;4.70;;;;;;;20.74;50.17;100051.08;1725951;83;21070;-69
2022/08/26 04:12:43;;;;;;;11.25;4.37;;;;;;;20.75;50.06;100048.70;1695080;84;21024;-68
2022/08/26 04:15:13;;;;;;;10.70;4.33;;;;;;;20.78;49.73;100052.36;1726589;81;22500;-69
2022/08/26 04:17:39;;;;;;;8.23;4.37;;;;;;;20.81;49.64;100057.33;1726991;83;20971;-69
2022/08/26 04:20:06;;;;;;;9.78;4.80;;;;;;;20.84;49.58;100062.30;1726701;83;21114;-69
2022/08/26 04:22:33;;;;;;;8.70;4.20;;;;;;;20.87;49.45;100064.61;1727011;82;21008;-69
2022/08/26 04:24:59;;;;;;;9.33;4.92;;;;;;;20.90;49.36;100061.52;1720514;81;21008;-69
2022/08/26 04:27:25;;;;;;;10.55;4.10;;;;;;;20.94;49.04;100056.09;1726784;81;21767;-69
2022/08/26 04:29:52;;;;;;;10.88;4.17;;;;;;;20.97;48.84;100058.38;1726496;82;21020;-69
2022/08/26 04:32:18;;;;;;;11.93;4.97;;;;;;;21.01;48.73;100069.55;1726998;82;20969;-70
2022/08/26 04:34:45;;;;;;;15.30;4.90;;;;;;;21.03;48.50;100070.17;1724356;81;21126;-70
2022/08/26 04:37:12;;;;;;;11.28;4.80;;;;;;;21.05;48.47;100078.36;1733774;81;21095;-69
2022/08/26 04:39:39;;;;;;;10.10;4.58;;;;;;;21.09;48.39;100078.28;1721138;83;22391;-69
2022/08/26 04:42:05;;;;;;;12.37;4.40;;;;;;;21.13;48.45;100070.16;1721286;83;21035;-70
2022/08/26 04:44:34;;;;;;;9.73;4.22;;;;;;;21.15;48.40;100073.98;1721627;81;21030;-71
2022/08/26 04:47:01;;;;;;;15.13;4.75;;;;;;;21.18;48.53;100077.61;1721173;81;21054;-69
2022/08/26 04:49:28;;;;;;;11.95;4.53;;;;;;;21.24;48.57;100070.11;1721166;81;21396;-69
2022/08/26 04:51:54;;;;;;;12.03;4.37;;;;;;;21.30;48.75;100073.88;1721143;83;21868;-69
2022/08/26 04:54:21;;;;;;;12.60;5.33;;;;;;;21.33;48.74;100074.33;1718907;83;21063;-68
2022/08/26 04:56:49;;;;;;;9.75;4.37;;;;;;;21.40;48.68;100069.79;1707559;82;20961;-69
2022/08/26 04:59:16;;;;;;;10.32;4.20;;;;;;;21.46;48.67;100076.75;1730074;82;21004;-69
2022/08/26 05:01:48;;;;;;;10.98;4.40;;;;;;;21.51;48.46;100066.22;1724752;82;20998;-68
2022/08/26 05:04:16;;;;;;;12.47;4.37;;;;;;;21.58;48.17;100070.59;1725541;82;21810;-68
2022/08/26 05:06:44;;;;;;;15.90;4.33;;;;;;;21.67;47.91;100068.05;1748675;82;21470;-69
2022/08/26 05:09:12;;;;;;;11.70;4.75;;;;;;;21.75;47.75;100069.73;1697199;82;21411;-68
2022/08/26 05:11:40;;;;;;;13.58;4.40;;;;;;;21.84;47.56;100078.45;1674254;84;20964;-68
2022/08/26 05:14:06;;;;;;;11.93;4.72;;;;;;;21.92;47.20;100072.90;1712246;83;20976;-69
2022/08/26 05:16:33;;;;;;;14.45;4.22;;;;;;;22.00;46.90;100075.38;1705542;84;21823;-68
2022/08/26 05:19:00;;;;;;;11.95;4.37;;;;;;;22.08;46.22;100077.91;1707792;82;20947;-70
2022/08/26 05:21:27;;;;;;;9.93;4.08;;;;;;;22.17;46.24;100082.07;1705572;83;21016;-68
2022/08/26 05:23:55;;;;;;;10.23;4.15;;;;;;;22.25;45.54;100080.54;1743264;82;20976;-68
2022/08/26 05:26:24;;;;;;;17.62;4.72;;;;;;;22.33;45.60;100078.17;1720698;82;21107;-69
2022/08/26 05:28:51;;;;;;;33.88;25.48;;;;;;;22.41;45.08;100079.84;1726369;81;21931;-69
2022/08/26 05:31:21;;;;;;;16.60;8.38;;;;;;;22.50;45.04;100078.61;1709398;83;21000;-70
2022/08/26 05:33:48;;;;;;;14.68;6.28;;;;;;;22.59;44.90;100081.92;1729770;82;20957;-69
2022/08/26 05:36:17;;;;;;;12.82;4.85;;;;;;;22.68;43.83;100082.86;1712114;82;21052;-69
2022/08/26 05:38:44;;;;;;;20.77;10.35;;;;;;;22.75;43.83;100088.22;1682870;85;21055;-69
2022/08/26 05:41:32;;;;;;;12.33;5.20;;;;;;;22.83;43.60;100093.39;1688675;83;21794;-69
2022/08/26 05:43:59;;;;;;;11.40;4.28;;;;;;;22.90;43.39;100094.26;1707164;83;20941;-69
2022/08/26 05:46:26;;;;;;;15.35;4.40;;;;;;;22.98;43.08;100088.66;1709598;82;21413;-69
2022/08/26 05:48:55;;;;;;;15.15;4.40;;;;;;;23.05;42.37;100088.11;1716387;82;21040;-69
2022/08/26 05:51:22;;;;;;;11.33;3.58;;;;;;;23.10;42.33;100080.76;1710708;82;21060;-69
2022/08/26 05:53:49;;;;;;;14.55;4.08;;;;;;;23.16;42.53;100079.89;1680422;83;21860;-69
2022/08/26 05:56:16;;;;;;;18.42;3.92;;;;;;;23.24;42.56;100082.89;1721459;81;21036;-69
2022/08/26 05:58:42;;;;;;;15.28;3.90;;;;;;;23.31;42.63;100076.97;1725119;82;21011;-69
2022/08/26 06:01:13;;;;;;;10.75;4.15;;;;;;;23.39;42.65;100076.22;1726687;83;21012;-71
2022/08/26 06:03:43;;;;;;;11.93;4.12;;;;;;;23.48;42.26;100089.47;1721529;83;21110;-70
2022/08/26 06:06:14;;;;;;;11.45;4.03;;;;;;;23.54;41.56;100080.51;1708401;81;21946;-69
2022/08/26 06:08:40;;;;;;;12.03;4.00;;;;;;;23.59;41.78;100084.78;1705892;83;20949;-71
2022/08/26 06:11:09;;;;;;;14.68;4.40;;;;;;;23.62;41.76;100088.39;1726856;83;20952;-71
2022/08/26 06:13:37;;;;;;;12.93;3.98;;;;;;;23.63;41.59;100090.05;1725529;81;21020;-70
2022/08/26 06:16:08;;;;;;;10.75;3.87;;;;;;;23.67;41.47;100092.12;1726413;81;21465;-69
2022/08/26 06:18:39;;;;;;;12.20;3.67;;;;;;;23.75;41.64;100093.75;1725444;83;22603;-71
2022/08/26 06:21:22;;;;;;;13.38;4.10;;;;;;;23.83;41.41;100098.05;1726649;83;20956;-71
2022/08/26 06:26:36;;;;;;;14.30;6.37;;;;;;;23.98;41.23;100095.91;1723195;81;20983;-71
2022/08/26 06:29:04;;;;;;;86.40;77.00;;;;;;;24.03;41.12;100085.80;1721140;82;21019;-70
2022/08/26 06:31:33;;;;;;;28.45;20.05;;;;;;;24.09;41.50;100087.12;1724582;81;21927;-70
2022/08/26 06:34:00;;;;;;;26.62;17.07;;;;;;;24.16;41.14;100079.81;1692022;83;21201;-70
2022/08/26 06:36:29;;;;;;;17.70;12.50;;;;;;;24.21;41.19;100081.84;1725008;81;21422;-70
2022/08/26 06:38:59;;;;;;;18.02;9.35;;;;;;;24.27;41.40;100083.16;1740443;81;21399;-70
2022/08/26 06:41:26;;;;;;;14.05;5.47;;;;;;;24.35;41.52;100083.98;1726347;81;20945;-71
2022/08/26 06:43:53;;;;;;;15.30;4.05;;;;;;;24.46;41.76;100087.33;1725931;82;21547;-70
2022/08/26 06:46:20;;;;;;;11.78;3.98;;;;;;;24.57;41.80;100083.08;1727431;81;21419;-70
2022/08/26 06:48:47;;;;;;;12.95;3.98;;;;;;;24.68;41.62;100085.88;1724412;81;21374;-69
2022/08/26 06:51:21;;;;;;;15.55;4.10;;;;;;;24.81;41.26;100073.63;1726431;81;21448;-69
2022/08/26 06:53:50;;;;;;;10.13;4.00;;;;;;;24.88;40.50;100074.08;1695552;84;21010;-70
2022/08/26 06:56:21;;;;;;;18.00;3.95;;;;;;;24.89;40.19;100075.20;1722669;83;21823;-69
2022/08/26 06:58:48;;;;;;;13.85;7.25;;;;;;;24.87;40.17;100080.00;1724627;81;20952;-71
2022/08/26 07:01:21;;;;;;;15.30;4.70;;;;;;;24.89;39.99;100083.30;1723658;83;21007;-70
2022/08/26 07:03:50;;;;;;;10.45;4.03;;;;;;;24.96;40.45;100083.25;1725861;81;21004;-69
2022/08/26 07:06:18;;;;;;;17.32;4.12;;;;;;;25.05;40.40;100085.47;1727019;81;21012;-70
2022/08/26 07:08:49;;;;;;;20.23;3.90;;;;;;;25.14;40.64;100086.01;1729754;81;21915;-70
2022/08/26 07:11:17;;;;;;;11.97;3.90;;;;;;;25.27;39.99;100086.38;1725582;81;20996;-70
2022/08/26 07:13:45;;;;;;;18.17;3.80;;;;;;;25.37;39.26;100083.45;1725778;81;20997;-72
2022/08/26 07:16:16;;;;;;;12.15;3.98;;;;;;;25.45;38.84;100087.73;1723654;81;21522;-69
2022/08/26 07:18:42;;;;;;;10.58;3.62;;;;;;;25.53;39.53;100094.20;1721695;81;21051;-68
2022/08/26 07:21:12;;;;;;;10.78;3.60;;;;;;;25.65;38.20;100096.44;1715063;81;22464;-69
2022/08/26 07:23:39;;;;;;;10.48;4.00;;;;;;;25.75;37.84;100098.64;1725063;83;21468;-69
2022/08/26 07:26:09;;;;;;;14.43;3.95;;;;;;;25.83;37.40;100092.09;1699081;83;21059;-69
2022/08/26 07:28:37;;;;;;;11.90;4.05;;;;;;;25.89;36.52;100080.36;1708186;82;21026;-70
2022/08/26 07:31:07;;;;;;;10.08;4.03;;;;;;;25.87;36.50;100081.95;1691389;84;21032;-70
2022/08/26 07:33:35;;;;;;;11.75;3.87;;;;;;;25.87;36.60;100083.30;1693479;82;21947;-70
2022/08/26 07:36:02;;;;;;;13.20;5.35;;;;;;;25.83;36.65;100070.45;1684034;83;21590;-70
2022/08/26 07:38:29;;;;;;;15.88;4.58;;;;;;;25.86;36.81;100068.09;1690797;83;20982;-72
2022/08/26 07:40:55;;;;;;;9.25;3.87;;;;;;;25.93;37.34;100072.08;1713324;83;21036;-70
2022/08/26 07:43:22;;;;;;;10.40;3.58;;;;;;;26.02;37.85;100068.52;1701462;83;21159;-70
2022/08/26 07:45:49;;;;;;;7.80;3.80;;;;;;;26.13;38.34;100064.48;1703739;83;21939;-69
2022/08/26 07:48:16;;;;;;;9.20;3.67;;;;;;;26.24;38.35;100066.92;1695020;83;21442;-71
2022/08/26 07:50:43;;;;;;;14.43;4.85;;;;;;;26.36;37.84;100064.27;1699250;82;21131;-69
2022/08/26 07:53:09;;;;;;;25.35;9.70;;;;;;;26.41;37.04;100067.95;1699939;82;21411;-72
2022/08/26 07:55:36;;;;;;;16.15;5.83;;;;;;;26.47;37.27;100060.25;1711457;82;21433;-69
2022/08/26 07:58:03;;;;;;;11.68;4.72;;;;;;;26.54;36.96;100054.73;1705790;82;21827;-72
2022/08/26 08:00:31;;;;;;;14.65;4.15;;;;;;;26.59;36.79;100052.66;1732728;81;21026;-73
2022/08/26 08:02:59;;;;;;;13.95;3.92;;;;;;;26.62;37.19;100050.30;1742863;81;21086;-70
2022/08/26 08:05:26;;;;;;;12.75;3.67;;;;;;;26.68;36.89;100052.61;1751949;81;21494;-72
2022/08/26 08:07:53;;;;;;;13.30;6.72;;;;;;;26.75;36.74;100056.86;1729734;81;21062;-70
2022/08/26 08:10:22;;;;;;;11.85;5.35;;;;;;;26.78;37.14;100053.67;1736634;81;21787;-70
2022/08/26 08:12:49;;;;;;;12.30;3.87;;;;;;;26.67;37.84;100054.50;1753898;81;21097;-69
2022/08/26 08:15:16;;;;;;;12.03;3.70;;;;;;;26.57;37.97;100056.14;1729673;81;21000;-69
2022/08/26 08:17:42;;;;;;;13.98;3.62;;;;;;;26.44;38.43;100053.11;1734055;81;21024;-70
2022/08/26 08:20:10;;;;;;;14.73;3.60;;;;;;;26.40;38.76;100051.94;1742212;81;20961;-72
2022/08/26 08:22:36;;;;;;;10.58;3.30;;;;;;;26.35;37.59;100056.68;1748847;81;21860;-68
2022/08/26 08:25:04;;;;;;;9.80;3.37;;;;;;;26.33;38.34;100045.77;1739747;81;21055;-74
2022/08/26 08:27:35;;;;;;;10.28;3.20;;;;;;;26.37;38.72;100046.96;1746666;81;21349;-74
2022/08/26 08:30:04;;;;;;;16.73;3.80;;;;;;;26.44;38.61;100051.75;1733385;81;21043;-72
2022/08/26 08:32:30;;;;;;;13.53;3.67;;;;;;;26.49;38.81;100054.06;1744388;81;21136;-73
2022/08/26 08:34:58;;;;;;;10.88;3.27;;;;;;;26.57;38.46;100052.08;1742569;81;22260;-70
2022/08/26 08:37:26;;;;;;;9.13;3.42;;;;;;;26.63;38.87;100047.88;1733866;81;21041;-70
2022/08/26 08:39:53;;;;;;;15.23;3.58;;;;;;;26.70;39.02;100039.12;1745266;81;21019;-67
2022/08/26 08:42:44;;;;;;;9.90;3.33;;;;;;;26.82;38.23;100039.94;1734106;81;21494;-69
2022/08/26 08:45:23;;;;;;;13.20;3.72;;;;;;;27.01;38.21;100036.56;1679290;82;21300;-68
2022/08/26 08:47:54;;;;;;;12.18;3.52;;;;;;;27.34;37.26;100041.38;1736854;81;22412;-67
2022/08/26 08:50:32;;;;;;;11.25;3.72;;;;;;;27.55;36.49;100043.15;1745157;81;21047;-68
2022/08/26 08:53:15;;;;;;;16.05;4.00;;;;;;;27.63;35.70;100044.13;1748842;80;21058;-67
2022/08/26 08:56:13;;;;;;;10.80;3.60;;;;;;;27.54;35.60;100043.68;1737740;81;21043;-70
2022/08/26 08:59:19;;;;;;;13.10;4.10;;;;;;;27.49;35.50;100045.45;1732647;81;21111;-66
2022/08/26 09:01:52;;;;;;;10.98;3.62;;;;;;;27.41;35.21;100041.26;1732084;81;22007;-67
2022/08/26 09:05:02;;;;;;;10.50;3.72;;;;;;;27.36;35.86;100048.74;1739115;81;21097;-67
2022/08/26 09:07:43;;;;;;;11.75;3.40;;;;;;;27.38;35.79;100044.42;1707343;81;21078;-68
2022/08/26 09:10:38;;;;;;;12.37;3.47;;;;;;;27.48;35.77;100042.45;1735833;81;21625;-67
2022/08/26 09:13:10;;;;;;;16.80;3.47;;;;;;;27.66;35.63;100039.06;1712267;81;21010;-71
2022/08/26 09:16:09;;;;;;;9.15;3.37;;;;;;;27.87;35.23;100038.09;1735430;81;21831;-69
2022/08/26 09:19:10;;;;;;;10.85;3.22;;;;;;;27.97;33.72;100030.13;1718729;81;21558;-70
2022/08/26 09:21:38;;;;;;;12.85;3.80;;;;;;;27.94;34.24;100035.52;1718892;83;21011;-68
2022/08/26 09:24:10;;;;;;;15.25;4.05;;;;;;;28.03;33.88;100031.05;1722431;81;21122;-70
2022/08/26 09:26:42;;;;;;;;;;;;;;;28.22;34.21;100030.58;1727273;83;21069;-70
2022/08/26 09:29:23;;;;;;;35.10;4.65;;;;;;;28.44;33.55;100023.90;1695364;83;22272;-70
2022/08/26 09:32:19;;;;;;;8.80;3.30;;;;;;;28.70;32.61;100020.22;1692248;83;21573;-70
2022/08/26 09:35:01;;;;;;;11.63;3.58;;;;;;;28.70;32.61;100020.22;1719991;82;21062;-70
2022/08/26 09:37:41;;;;;;;9.63;4.45;;;;;;;28.64;33.03;100022.56;1724855;82;21021;-70
2022/08/26 09:40:25;;;;;;;10.03;3.25;;;;;;;28.62;32.63;100011.13;1722434;81;21055;-69
2022/08/26 09:43:21;;;;;;;14.15;3.45;;;;;;;28.62;32.73;100011.13;1719693;81;21805;-70
2022/08/26 09:46:13;;;;;;;11.73;3.87;;;;;;;28.74;33.04;100009.95;1698469;83;21462;-70
2022/08/26 09:48:43;;;;;;;16.25;4.28;;;;;;;28.84;31.73;99998.39;1735996;80;21015;-69
2022/08/26 09:51:30;;;;;;;11.97;3.72;;;;;;;28.84;31.73;99998.39;1719667;81;21027;-69
2022/08/26 09:54:02;;;;;;;11.83;3.70;;;;;;;28.93;31.14;100003.72;1729825;81;21043;-68
2022/08/26 09:56:35;;;;;;;15.13;3.90;;;;;;;28.96;31.45;100004.59;1730953;81;22650;-69
2022/08/26 09:59:10;;;;;;;12.90;4.15;;;;;;;29.00;31.55;100000.28;1711663;82;21063;-69
2022/08/26 10:01:48;;;;;;;15.53;4.17;;;;;;;29.16;31.65;99996.41;1701336;83;22212;-69
2022/08/26 10:04:30;;;;;;;10.25;3.95;;;;;;;29.16;31.65;99996.41;1720198;81;21057;-70
2022/08/26 10:07:05;;;;;;;14.33;4.27;;;;;;;29.41;30.94;99995.34;1652745;82;21423;-69
2022/08/26 10:09:38;;;;;;;10.35;3.85;;;;;;;29.73;31.06;100002.81;1691838;83;22538;-69
2022/08/26 10:12:20;;;;;;;13.15;3.92;;;;;;;29.73;31.06;100002.81;1690104;84;21091;-69
2022/08/26 10:14:59;;;;;;;16.75;3.77;;;;;;;29.83;31.14;100003.73;1703552;82;21522;-70
2022/08/26 10:17:31;;;;;;;12.78;4.08;;;;;;;29.92;31.16;100003.55;1703331;82;21619;-69
2022/08/26 10:20:08;;;;;;;10.30;3.92;;;;;;;29.90;30.96;100005.68;1704744;83;27051;-70
2022/08/26 10:22:52;;;;;;;9.00;3.40;;;;;;;29.88;31.88;100011.11;1718377;80;22740;-70
2022/08/26 10:25:29;;;;;;;11.48;3.70;;;;;;;29.92;32.28;100012.26;1688075;83;21048;-69
2022/08/26 10:28:11;;;;;;;11.93;3.65;;;;;;;29.98;32.88;100007.66;1689621;83;21613;-69
2022/08/26 10:30:52;;;;;;;9.28;3.15;;;;;;;29.97;32.79;100016.91;1693181;83;21126;-69
2022/08/26 10:33:24;;;;;;;8.15;2.77;;;;;;;29.83;32.46;100013.26;1691583;83;21068;-71
2022/08/26 10:36:00;;;;;;;8.40;2.90;;;;;;;29.78;32.37;100012.38;1664070;86;21857;-69
2022/08/26 10:38:37;;;;;;;9.30;2.70;;;;;;;29.81;32.56;100011.31;1702703;83;21473;-71
2022/08/26 10:41:20;;;;;;;6.95;2.35;;;;;;;29.89;31.37;100016.84;1718846;81;21035;-71
2022/08/26 10:44:02;;;;;;;8.18;3.00;;;;;;;29.82;29.27;100002.09;1728094;82;21043;-71
2022/08/26 10:46:42;;;;;;;8.45;2.70;;;;;;;29.71;29.50;99997.59;1705347;83;21096;-70
2022/08/26 10:49:14;;;;;;;7.83;2.65;;;;;;;29.75;29.84;99996.56;1739394;82;21865;-71
2022/08/26 10:52:08;;;;;;;8.80;5.00;;;;;;;29.82;29.14;99995.80;1707352;83;21095;-71
2022/08/26 10:55:01;;;;;;;16.82;8.35;;;;;;;29.93;29.46;100000.28;1696522;83;21015;-69
2022/08/26 10:57:47;;;;;;;11.83;2.65;;;;;;;30.09;29.04;99999.89;1717465;82;20960;-71
2022/08/26 11:03:30;;;;;;;8.58;2.50;;;;;;;30.50;29.11;99983.34;1695983;83;21849;-71
2022/08/26 11:06:24;;;;;;;10.72;2.50;;;;;;;30.77;29.77;99981.33;1725924;82;21709;-72
2022/08/26 11:08:58;;;;;;;5.90;2.35;;;;;;;31.04;30.23;99985.29;1731025;82;21033;-70
2022/08/26 11:11:45;;;;;;;13.18;2.40;;;;;;;31.25;29.39;99979.39;1700884;83;21611;-71
2022/08/26 11:14:25;;;;;;;8.18;2.20;;;;;;;31.36;29.63;99983.52;1732990;81;21490;-70
2022/08/26 11:17:04;;;;;;;9.28;2.50;;;;;;;31.37;29.95;99983.83;1722582;81;21980;-69
2022/08/26 11:19:51;;;;;;;10.50;2.40;;;;;;;31.38;30.70;99975.91;1702936;82;21016;-70
2022/08/26 11:22:31;;;;;;;6.90;2.22;;;;;;;31.40;30.97;99972.36;1724141;81;21047;-73
2022/08/26 11:25:02;;;;;;;7.55;2.50;;;;;;;31.44;30.26;99963.90;1674459;84;21113;-70
2022/08/26 11:27:42;;;;;;;9.08;2.65;;;;;;;31.47;31.07;99968.84;1705380;81;21042;-69
2022/08/26 11:30:19;;;;;;;12.65;3.20;;;;;;;31.62;30.91;99968.85;1725231;83;22784;-69
2022/08/26 11:32:50;;;;;;;11.18;2.80;;;;;;;31.76;29.82;99971.92;1728256;81;21525;-69
2022/08/26 11:35:23;;;;;;;7.40;2.30;;;;;;;31.77;29.43;99971.65;1702597;83;21039;-70
2022/08/26 11:37:56;;;;;;;7.42;2.45;;;;;;;31.79;29.80;99966.73;1724799;82;21027;-69
2022/08/26 11:40:39;;;;;;;16.05;8.70;;;;;;;31.81;29.27;99971.91;1725482;82;21558;-69
2022/08/26 11:43:17;;;;;;;10.00;3.22;;;;;;;31.73;29.05;99969.14;1722089;81;21840;-70
2022/08/26 11:46:00;;;;;;;7.22;2.35;;;;;;;31.67;28.36;99969.42;1707525;82;21030;-70
2022/08/26 11:48:34;;;;;;;11.20;2.27;;;;;;;31.55;26.56;99973.20;1703235;83;21105;-70